createdAt,value
2023-05-10T00:01:40.703Z,101160.91
2023-05-10T00:04:43.050Z,101155.41
2023-05-10T00:07:48.399Z,101159.38
2023-05-10T00:10:50.998Z,101164.03
2023-05-10T00:13:53.365Z,101157.41
2023-05-10T00:16:55.830Z,101158.00
2023-05-10T00:19:58.649Z,101157.06
2023-05-10T00:23:00.987Z,101153.16
2023-05-10T00:26:03.439Z,101155.75
2023-05-10T00:29:05.767Z,101151.97
2023-05-10T00:32:08.561Z,101156.34
2023-05-10T00:35:10.965Z,101155.06
2023-05-10T00:38:13.350Z,101154.84
2023-05-10T00:41:16.340Z,101143.16
2023-05-10T00:44:19.768Z,101152.91
2023-05-10T00:47:23.062Z,101144.06
2023-05-10T00:50:25.542Z,101144.22
2023-05-10T00:53:28.348Z,101136.78
2023-05-10T00:56:31.086Z,101131.81
2023-05-10T00:59:33.655Z,101129.97
2023-05-10T01:02:36.548Z,101131.00
2023-05-10T01:05:39.562Z,101127.13
2023-05-10T01:08:42.279Z,101121.44
2023-05-10T01:11:44.659Z,101119.44
2023-05-10T01:14:47.169Z,101117.88
2023-05-10T01:17:50.016Z,101111.53
2023-05-10T01:21:01.567Z,101114.97
2023-05-10T01:24:14.366Z,101116.50
2023-05-10T01:27:45.185Z,101114.72
2023-05-10T01:31:20.452Z,101110.81
2023-05-10T01:34:27.144Z,101106.13
2023-05-10T01:37:43.674Z,101102.69
2023-05-10T01:40:55.351Z,101107.97
2023-05-10T01:44:16.049Z,101105.75
2023-05-10T01:47:31.295Z,101107.41
2023-05-10T01:50:35.095Z,101101.16
2023-05-10T01:53:39.188Z,101100.19
2023-05-10T01:56:42.295Z,101103.97
2023-05-10T01:59:47.372Z,101101.47
2023-05-10T02:02:51.018Z,101100.84
2023-05-10T02:05:55.343Z,101102.44
2023-05-10T02:08:58.700Z,101099.63
2023-05-10T02:12:04.398Z,101098.13
2023-05-10T02:15:09.257Z,101097.06
2023-05-10T02:18:12.605Z,101091.97
2023-05-10T02:21:16.498Z,101104.13
2023-05-10T02:24:19.424Z,101089.69
2023-05-10T02:27:22.408Z,101090.97
2023-05-10T02:30:25.418Z,101093.94
2023-05-10T02:33:28.267Z,101089.59
2023-05-10T02:36:31.153Z,101086.53
2023-05-10T02:39:33.970Z,101097.97
2023-05-10T02:42:39.048Z,101094.25
2023-05-10T02:45:42.127Z,101102.66
2023-05-10T02:48:45.423Z,101090.16
2023-05-10T02:51:52.818Z,101081.81
2023-05-10T02:54:57.893Z,101086.13
2023-05-10T02:58:02.610Z,101102.97
2023-05-10T03:01:05.152Z,101101.84
2023-05-10T03:04:07.683Z,101099.69
2023-05-10T03:07:10.423Z,101093.22
2023-05-10T03:10:13.268Z,101095.25
2023-05-10T03:13:32.151Z,101096.19
2023-05-10T03:17:02.368Z,101102.91
2023-05-10T03:20:08.817Z,101095.38
2023-05-10T03:23:15.682Z,101089.50
2023-05-10T03:26:26.579Z,101096.50
2023-05-10T03:29:35.524Z,101079.72
2023-05-10T03:32:38.714Z,101094.69
2023-05-10T03:35:41.142Z,101094.25
2023-05-10T03:38:43.561Z,101091.03
2023-05-10T03:41:46.148Z,101093.44
2023-05-10T03:44:50.255Z,101095.22
2023-05-10T03:47:56.009Z,101091.41
2023-05-10T03:50:58.365Z,101083.47
2023-05-10T03:54:00.839Z,101087.19
2023-05-10T03:57:04.046Z,101089.09
2023-05-10T04:00:07.682Z,101089.03
2023-05-10T04:03:16.801Z,101054.47
2023-05-10T04:06:19.486Z,101093.94
2023-05-10T04:09:22.062Z,101085.75
2023-05-10T04:12:24.574Z,101072.75
2023-05-10T04:15:27.004Z,101072.88
2023-05-10T04:18:29.530Z,101079.25
2023-05-10T04:21:32.003Z,101070.59
2023-05-10T04:24:34.286Z,101076.75
2023-05-10T04:27:36.654Z,101070.50
2023-05-10T04:30:39.197Z,101075.63
2023-05-10T04:33:41.588Z,101057.72
2023-05-10T04:36:44.397Z,101065.09
2023-05-10T04:39:46.737Z,101061.78
2023-05-10T04:42:49.298Z,101067.22
2023-05-10T04:45:51.844Z,101069.38
2023-05-10T04:48:54.239Z,101052.94
2023-05-10T04:51:57.028Z,101060.38
2023-05-10T04:54:59.518Z,101075.09
2023-05-10T04:58:01.982Z,101070.44
2023-05-10T05:01:09.107Z,101074.44
2023-05-10T05:04:11.705Z,101069.16
2023-05-10T05:07:14.089Z,101065.59
2023-05-10T05:10:17.009Z,101070.94
2023-05-10T05:13:20.057Z,101067.47
2023-05-10T05:16:22.710Z,101067.38
2023-05-10T05:19:25.130Z,101062.59
2023-05-10T05:22:29.134Z,101071.75
2023-05-10T05:25:31.496Z,101068.97
2023-05-10T05:28:35.831Z,101073.97
2023-05-10T05:31:38.184Z,101073.66
2023-05-10T05:34:40.610Z,101071.28
2023-05-10T05:37:42.987Z,101072.25
2023-05-10T05:40:46.310Z,101078.19
2023-05-10T05:43:48.574Z,101080.09
2023-05-10T05:46:51.067Z,101083.88
2023-05-10T05:49:53.368Z,101068.66
2023-05-10T05:52:56.265Z,101081.44
2023-05-10T05:56:00.068Z,101072.50
2023-05-10T05:59:02.575Z,101077.97
2023-05-10T06:02:04.835Z,101065.03
2023-05-10T06:05:07.845Z,101067.09
2023-05-10T06:08:10.262Z,101063.16
2023-05-10T06:11:12.753Z,101053.81
2023-05-10T06:14:15.900Z,101063.75
2023-05-10T06:17:19.151Z,101072.13
2023-05-10T06:20:21.572Z,101076.13
2023-05-10T06:23:23.925Z,101071.97
2023-05-10T06:26:26.578Z,101054.25
2023-05-10T06:29:28.919Z,101062.13
2023-05-10T06:32:31.524Z,101060.22
2023-05-10T06:35:34.619Z,101064.16
2023-05-10T06:38:37.136Z,101056.81
2023-05-10T06:41:39.513Z,101053.41
2023-05-10T06:44:41.776Z,101068.22
2023-05-10T06:47:44.756Z,101053.53
2023-05-10T06:50:47.129Z,101051.53
2023-05-10T06:53:49.594Z,101050.31
2023-05-10T06:56:51.933Z,101054.72
2023-05-10T06:59:54.575Z,101056.16
2023-05-10T07:02:56.942Z,101060.44
2023-05-10T07:06:06.141Z,101060.88
2023-05-10T07:09:08.834Z,101064.31
2023-05-10T07:12:13.402Z,101058.50
2023-05-10T07:15:17.740Z,101061.94
2023-05-10T07:18:20.474Z,101061.13
2023-05-10T07:21:25.132Z,101054.31
2023-05-10T07:24:27.568Z,101058.56
2023-05-10T07:27:29.928Z,101057.06
2023-05-10T07:30:32.332Z,101053.22
2023-05-10T07:33:34.757Z,101054.25
2023-05-10T07:36:37.634Z,101049.31
2023-05-10T07:39:40.047Z,101058.13
2023-05-10T07:42:42.352Z,101055.03
2023-05-10T07:45:44.638Z,101043.00
2023-05-10T07:48:47.283Z,101060.72
2023-05-10T07:51:50.239Z,101053.25
2023-05-10T07:54:52.593Z,101050.41
2023-05-10T07:57:55.324Z,101048.19
2023-05-10T08:00:58.046Z,101048.28
2023-05-10T08:04:01.149Z,101050.94
2023-05-10T08:07:03.687Z,101055.50
2023-05-10T08:10:06.777Z,101047.38
2023-05-10T08:13:09.206Z,101039.88
2023-05-10T08:16:11.601Z,101044.13
2023-05-10T08:19:13.998Z,101042.06
2023-05-10T08:22:16.710Z,101038.31
2023-05-10T08:25:19.370Z,101049.41
2023-05-10T08:28:22.040Z,101032.41
2023-05-10T08:31:24.451Z,101039.03
2023-05-10T08:34:27.056Z,101040.78
2023-05-10T08:37:31.782Z,101025.25
2023-05-10T08:40:34.338Z,101036.28
2023-05-10T08:43:37.574Z,101041.59
2023-05-10T08:46:45.230Z,101041.28
2023-05-10T08:49:52.534Z,101036.19
2023-05-10T08:52:57.405Z,101036.38
2023-05-10T08:55:59.840Z,101043.81
2023-05-10T08:59:02.258Z,101028.19
2023-05-10T09:02:06.069Z,101027.91
2023-05-10T09:05:09.023Z,101034.91
2023-05-10T09:08:17.398Z,101026.53
2023-05-10T09:11:23.589Z,101032.03
2023-05-10T09:14:27.872Z,101053.91
2023-05-10T09:17:30.858Z,101030.34
2023-05-10T09:20:33.322Z,101008.72
2023-05-10T09:23:35.902Z,101026.13
2023-05-10T09:26:48.700Z,101020.25
2023-05-10T09:29:55.432Z,101019.66
2023-05-10T09:32:59.328Z,101024.19
2023-05-10T09:36:09.568Z,101019.78
2023-05-10T09:39:12.061Z,101018.84
2023-05-10T09:42:14.459Z,101034.44
2023-05-10T09:45:16.972Z,101022.94
2023-05-10T09:48:19.627Z,101002.50
2023-05-10T09:51:23.137Z,101008.13
2023-05-10T09:54:25.510Z,101018.69
2023-05-10T09:57:27.782Z,101007.53
2023-05-10T10:00:36.599Z,101008.56
2023-05-10T10:03:44.550Z,101007.09
2023-05-10T10:06:46.924Z,100995.06
2023-05-10T10:09:49.863Z,101011.16
2023-05-10T10:12:52.817Z,100984.25
2023-05-10T10:15:56.133Z,100997.09
2023-05-10T10:18:59.001Z,100994.72
2023-05-10T10:22:01.953Z,100991.00
2023-05-10T10:25:05.961Z,100985.19
2023-05-10T10:28:22.881Z,100986.75
2023-05-10T10:31:39.189Z,100970.81
2023-05-10T10:34:41.771Z,100982.75
2023-05-10T10:37:49.251Z,100970.50
2023-05-10T10:41:04.504Z,100968.91
2023-05-10T10:44:24.940Z,100961.97
2023-05-10T10:47:34.042Z,100961.88
2023-05-10T10:50:47.907Z,100961.88
2023-05-10T10:53:50.301Z,100958.25
2023-05-10T10:57:16.147Z,100947.25
2023-05-10T11:00:33.572Z,100947.75
2023-05-10T11:03:36.057Z,100945.66
2023-05-10T11:06:38.615Z,100952.97
2023-05-10T11:09:41.706Z,100950.16
2023-05-10T11:13:06.994Z,100946.56
2023-05-10T11:16:14.376Z,100948.38
2023-05-10T11:19:18.000Z,100950.00
2023-05-10T11:22:20.517Z,100955.88
2023-05-10T11:25:29.286Z,100948.84
2023-05-10T11:28:34.921Z,100941.81
2023-05-10T11:31:45.005Z,100953.44
2023-05-10T11:34:49.531Z,100933.41
2023-05-10T11:37:51.698Z,100965.13
2023-05-10T11:40:54.736Z,100963.34
2023-05-10T11:43:58.308Z,100954.22
2023-05-10T11:47:02.208Z,100942.81
2023-05-10T11:50:05.364Z,100941.16
2023-05-10T11:53:07.791Z,100941.38
2023-05-10T11:56:11.812Z,100941.84
2023-05-10T11:59:16.119Z,100947.38
2023-05-10T12:02:18.716Z,100946.66
2023-05-10T12:05:21.280Z,100932.94
2023-05-10T12:08:25.479Z,100937.72
2023-05-10T12:11:29.391Z,100937.28
2023-05-10T12:14:36.496Z,100941.03
2023-05-10T12:17:43.195Z,100938.47
2023-05-10T12:20:45.988Z,100937.91
2023-05-10T12:23:50.428Z,100937.91
2023-05-10T12:30:13.281Z,100924.97
2023-05-10T12:33:17.641Z,100940.50
2023-05-10T12:36:24.681Z,100917.72
2023-05-10T12:39:27.178Z,100919.16
2023-05-10T12:42:30.338Z,100927.22
2023-05-10T12:45:32.670Z,100926.97
2023-05-10T12:48:36.125Z,100929.22
2023-05-10T12:51:38.498Z,100916.13
2023-05-10T12:54:40.991Z,100925.44
2023-05-10T12:57:43.346Z,100920.75
2023-05-10T13:00:46.072Z,100909.72
2023-05-10T13:03:48.672Z,100913.28
2023-05-10T13:06:51.107Z,100928.75
2023-05-10T13:09:53.450Z,100923.69
2023-05-10T13:12:55.876Z,100916.44
2023-05-10T13:15:58.170Z,100911.41
2023-05-10T13:19:00.635Z,100912.59
2023-05-10T13:22:03.109Z,100910.91
2023-05-10T13:25:05.857Z,100905.84
2023-05-10T13:28:08.385Z,100908.06
2023-05-10T13:31:11.490Z,100904.88
2023-05-10T13:34:13.898Z,100902.78
2023-05-10T13:37:16.323Z,100894.78
2023-05-10T13:40:18.956Z,100901.59
2023-05-10T13:43:21.645Z,100911.72
2023-05-10T13:46:24.223Z,100893.94
2023-05-10T13:49:26.926Z,100888.59
2023-05-10T13:52:29.366Z,100889.78
2023-05-10T13:55:31.724Z,100890.31
2023-05-10T13:58:34.129Z,100889.38
2023-05-10T14:01:36.500Z,100882.13
2023-05-10T14:04:38.878Z,100889.25
2023-05-10T14:07:41.747Z,100877.94
2023-05-10T14:10:44.038Z,100878.06
2023-05-10T14:13:46.365Z,100876.22
2023-05-10T14:16:48.798Z,100871.59
2023-05-10T14:19:51.165Z,100866.34
2023-05-10T14:22:53.509Z,100865.91
2023-05-10T14:25:56.137Z,100869.47
2023-05-10T14:28:58.676Z,100869.03
2023-05-10T14:32:01.346Z,100875.94
2023-05-10T14:35:04.330Z,100866.75
2023-05-10T14:38:07.113Z,100861.78
2023-05-10T14:41:11.248Z,100852.19
2023-05-10T14:44:14.500Z,100868.84
2023-05-10T14:47:16.809Z,100864.50
2023-05-10T14:50:35.288Z,100875.72
2023-05-10T14:53:39.109Z,100872.28
2023-05-10T14:56:42.663Z,100866.19
2023-05-10T14:59:44.971Z,100865.34
2023-05-10T15:02:49.203Z,100864.34
2023-05-10T15:05:52.825Z,100859.63
2023-05-10T15:08:55.292Z,100852.38
2023-05-10T15:11:57.801Z,100860.59
2023-05-10T15:15:00.163Z,100857.84
2023-05-10T15:18:02.798Z,100851.47
2023-05-10T15:21:05.413Z,100853.03
2023-05-10T15:24:08.118Z,100847.84
2023-05-10T15:27:10.493Z,100861.28
2023-05-10T15:30:13.395Z,100854.28
2023-05-10T15:33:15.756Z,100866.41
2023-05-10T15:36:19.100Z,100867.88
2023-05-10T15:39:21.467Z,100862.97
2023-05-10T15:42:23.976Z,100853.34
2023-05-10T15:45:26.401Z,100859.47
2023-05-10T15:48:28.920Z,100865.97
2023-05-10T15:51:35.360Z,100862.50
2023-05-10T15:54:38.923Z,100856.72
2023-05-10T15:57:42.674Z,100849.75
2023-05-10T16:00:45.285Z,100858.00
2023-05-10T16:03:47.797Z,100859.19
2023-05-10T16:06:52.618Z,100850.31
2023-05-10T16:09:55.280Z,100865.28
2023-05-10T16:12:58.078Z,100860.94
2023-05-10T16:16:00.709Z,100865.94
2023-05-10T16:19:04.134Z,100854.59
2023-05-10T16:22:06.497Z,100859.00
2023-05-10T16:25:10.175Z,100859.84
2023-05-10T16:28:13.598Z,100865.22
2023-05-10T16:31:16.067Z,100870.41
2023-05-10T16:34:20.582Z,100865.50
2023-05-10T16:37:23.119Z,100880.97
2023-05-10T16:40:25.963Z,100872.84
2023-05-10T16:43:32.095Z,100871.03
2023-05-10T16:46:34.716Z,100878.34
2023-05-10T16:49:37.571Z,100880.13
2023-05-10T16:52:40.295Z,100874.03
2023-05-10T16:55:42.945Z,100878.16
2023-05-10T16:58:45.300Z,100888.31
2023-05-10T17:01:48.361Z,100876.66
2023-05-10T17:04:53.211Z,100883.28
2023-05-10T17:07:56.200Z,100889.84
2023-05-10T17:11:02.934Z,100885.94
2023-05-10T17:14:05.341Z,100891.81
2023-05-10T17:17:07.996Z,100897.84
2023-05-10T17:20:10.886Z,100896.03
2023-05-10T17:23:13.764Z,100898.78
2023-05-10T17:26:19.730Z,100903.38
2023-05-10T17:29:22.204Z,100905.03
2023-05-10T17:32:24.837Z,100905.16
2023-05-10T17:35:28.308Z,100898.25
2023-05-10T17:38:30.985Z,100895.88
2023-05-10T17:41:34.832Z,100916.00
2023-05-10T17:44:39.991Z,100911.00
2023-05-10T17:47:42.795Z,100915.69
2023-05-10T17:50:45.737Z,100876.34
2023-05-10T17:53:48.402Z,100918.44
2023-05-10T17:56:51.015Z,100933.38
2023-05-10T17:59:53.736Z,100921.41
2023-05-10T18:02:56.423Z,100924.13
2023-05-10T18:05:59.782Z,100930.75
2023-05-10T18:09:03.913Z,100934.53
2023-05-10T18:12:06.810Z,100937.94
2023-05-10T18:15:09.571Z,100934.47
2023-05-10T18:18:12.112Z,100936.34
2023-05-10T18:21:14.692Z,100943.72
2023-05-10T18:24:26.247Z,100933.84
2023-05-10T18:27:38.212Z,100939.19
2023-05-10T18:30:41.822Z,100950.31
2023-05-10T18:33:46.446Z,100951.00
2023-05-10T18:36:51.215Z,100957.41
2023-05-10T18:39:54.371Z,100933.31
2023-05-10T18:42:58.038Z,100955.44
2023-05-10T18:46:01.233Z,100964.81
2023-05-10T18:49:06.626Z,100968.72
2023-05-10T18:52:09.954Z,100970.44
2023-05-10T18:55:13.550Z,100975.13
2023-05-10T18:58:16.517Z,100975.00
2023-05-10T19:01:20.218Z,100973.94
2023-05-10T19:04:26.705Z,100981.03
2023-05-10T19:07:30.961Z,100976.19
2023-05-10T19:10:34.070Z,100968.00
2023-05-10T19:13:39.380Z,100983.66
2023-05-10T19:16:43.189Z,100980.38
2023-05-10T19:19:46.172Z,100983.69
2023-05-10T19:23:08.177Z,100973.31
2023-05-10T19:26:12.682Z,100980.41
2023-05-10T19:29:15.516Z,100981.78
2023-05-10T19:32:18.264Z,100979.69
2023-05-10T19:35:20.728Z,100981.34
2023-05-10T19:38:24.321Z,100992.28
2023-05-10T19:41:27.172Z,100988.19
2023-05-10T19:44:29.712Z,101000.78
2023-05-10T19:47:35.265Z,101003.50
2023-05-10T19:50:38.524Z,100996.97
2023-05-10T19:53:44.980Z,101010.09
2023-05-10T19:56:47.596Z,101012.00
2023-05-10T19:59:50.065Z,101003.25
2023-05-10T20:02:53.792Z,101011.44
2023-05-10T20:05:56.420Z,101017.47
2023-05-10T20:08:58.879Z,101006.78
2023-05-10T20:12:02.297Z,100993.44
2023-05-10T20:15:07.504Z,101011.69
2023-05-10T20:18:11.368Z,101020.75
2023-05-10T20:21:16.932Z,101020.44
2023-05-10T20:24:20.507Z,101014.91
2023-05-10T20:27:24.680Z,101019.03
2023-05-10T20:30:27.125Z,101018.78
2023-05-10T20:33:32.414Z,101020.41
2023-05-10T20:36:35.124Z,101016.63
2023-05-10T20:39:37.520Z,101018.19
2023-05-10T20:42:39.991Z,101003.50
2023-05-10T20:45:42.490Z,101013.31
2023-05-10T20:48:44.935Z,101010.56
2023-05-10T20:51:47.340Z,101016.81
2023-05-10T20:54:49.728Z,101025.00
2023-05-10T20:57:53.070Z,101026.91
2023-05-10T21:00:56.783Z,101026.31
2023-05-10T21:03:59.017Z,101030.72
2023-05-10T21:07:03.486Z,101022.16
2023-05-10T21:10:08.362Z,101037.00
2023-05-10T21:13:11.197Z,101024.91
2023-05-10T21:16:13.771Z,101041.63
2023-05-10T21:19:17.193Z,101040.22
2023-05-10T21:22:19.855Z,101035.25
2023-05-10T21:25:23.413Z,101047.78
2023-05-10T21:28:26.002Z,101029.25
2023-05-10T21:31:28.420Z,101043.66
2023-05-10T21:34:31.169Z,101035.41
2023-05-10T21:37:34.079Z,101052.09
2023-05-10T21:40:37.009Z,101044.69
2023-05-10T21:43:39.408Z,101045.81
2023-05-10T21:46:41.788Z,101038.47
2023-05-10T21:49:44.169Z,101036.41
2023-05-10T21:52:46.477Z,101050.81
2023-05-10T21:55:49.059Z,101047.63
2023-05-10T21:58:51.539Z,101047.34
2023-05-10T22:01:54.906Z,101044.53
2023-05-10T22:04:57.322Z,101063.84
2023-05-10T22:07:59.893Z,101048.00
2023-05-10T22:11:02.526Z,101062.56
2023-05-10T22:14:05.013Z,101056.78
2023-05-10T22:17:07.508Z,101056.56
2023-05-10T22:20:10.702Z,101053.19
2023-05-10T22:23:13.543Z,101057.22
2023-05-10T22:26:16.050Z,101059.47
2023-05-10T22:29:18.343Z,101061.84
2023-05-10T22:32:20.680Z,101063.97
2023-05-10T22:35:23.786Z,101064.25
2023-05-10T22:38:26.312Z,101057.81
2023-05-10T22:41:28.614Z,101064.63
2023-05-10T22:44:31.017Z,101071.31
2023-05-10T22:47:33.838Z,101047.09
2023-05-10T22:50:37.153Z,101082.84
2023-05-10T22:53:39.547Z,101063.28
2023-05-10T22:56:41.890Z,101059.09
2023-05-10T22:59:44.380Z,101084.97
2023-05-10T23:02:46.834Z,101087.69
2023-05-10T23:05:49.242Z,101083.56
2023-05-10T23:08:52.242Z,101084.84
2023-05-10T23:11:54.611Z,101088.38
2023-05-10T23:14:57.284Z,101081.19
2023-05-10T23:18:04.655Z,101077.88
2023-05-10T23:21:07.226Z,101079.97
2023-05-10T23:24:09.707Z,101090.78
2023-05-10T23:27:12.086Z,101094.03
2023-05-10T23:30:14.799Z,101088.03
2023-05-10T23:33:17.102Z,101096.53
2023-05-10T23:36:19.600Z,101091.97
2023-05-10T23:39:22.239Z,101087.91
2023-05-10T23:42:24.566Z,101088.25
2023-05-10T23:45:26.925Z,101090.09
2023-05-10T23:48:29.273Z,101095.41
2023-05-10T23:51:32.918Z,101090.09
2023-05-10T23:54:35.224Z,101075.19
2023-05-10T23:57:37.820Z,101086.06
